Time;durP1;ratioP1;P1;durP2;ratioP2;P2;SDS_P1;SDS_P2;PMS_P1;PMS_P2;Temp;Humidity;BMP_temperature;BMP_pressure;BME280_temperature;BME280_humidity;BME280_pressure;Samples;Min_cycle;Max_cycle;Signal;HPM_P1;HPM_P2
2021/10/30 00:01:03;;;;;;;15.60;9.02;;;;;;;;;;5027659;28;20058;-83
2021/10/30 00:03:37;;;;;;;15.48;9.63;;;;;;;;;;5015356;28;20062;-83
2021/10/30 00:06:13;;;;;;;14.95;8.23;;;;;;;;;;5014518;28;20057;-83
2021/10/30 00:08:40;;;;;;;15.63;9.48;;;;;;;;;;5004453;28;20446;-83
2021/10/30 00:11:07;;;;;;;16.70;9.30;;;;;;;;;;4977882;28;20125;-83
2021/10/30 00:13:40;;;;;;;12.57;8.73;;;;;;;;;;5010579;28;20065;-84
2021/10/30 00:16:10;;;;;;;15.70;9.48;;;;;;;;;;4981215;28;20074;-83
2021/10/30 00:18:39;;;;;;;16.17;9.20;;;;;;;;;;4979067;28;20054;-83
2021/10/30 00:21:11;;;;;;;17.20;9.77;;;;;;;;;;5013344;28;20064;-83
2021/10/30 00:23:40;;;;;;;16.65;9.45;;;;;;;;;;5000912;28;20057;-83
2021/10/30 00:26:07;;;;;;;14.15;8.57;;;;;;;;;;5015486;28;20093;-83
2021/10/30 00:28:36;;;;;;;17.95;10.23;;;;;;;;;;4997057;28;20049;-83
2021/10/30 00:31:10;;;;;;;16.10;9.32;;;;;;;;;;5016414;28;20089;-83
2021/10/30 00:33:38;;;;;;;13.65;9.20;;;;;;;;;;5015177;28;20163;-83
2021/10/30 00:36:05;;;;;;;21.67;10.30;;;;;;;;;;4999542;28;20053;-83
2021/10/30 00:38:35;;;;;;;14.35;9.38;;;;;;;;;;4998103;28;20195;-83
2021/10/30 00:41:14;;;;;;;15.38;9.75;;;;;;;;;;4998184;28;20120;-84
2021/10/30 00:43:42;;;;;;;18.55;9.10;;;;;;;;;;4998868;28;20403;-83
2021/10/30 00:46:15;;;;;;;14.98;9.70;;;;;;;;;;5016246;28;20049;-83
2021/10/30 00:48:44;;;;;;;17.30;10.10;;;;;;;;;;4999298;28;20058;-84
2021/10/30 00:51:13;;;;;;;15.18;9.75;;;;;;;;;;4998655;28;20125;-83
2021/10/30 00:53:41;;;;;;;17.52;9.05;;;;;;;;;;4999376;28;20042;-83
2021/10/30 00:56:09;;;;;;;12.40;8.73;;;;;;;;;;5016012;28;20357;-83
2021/10/30 00:58:40;;;;;;;16.33;9.15;;;;;;;;;;5017130;28;20064;-83
2021/10/30 01:01:07;;;;;;;14.43;9.27;;;;;;;;;;5015677;28;20061;-83
2021/10/30 01:03:40;;;;;;;15.88;8.80;;;;;;;;;;5001479;28;20053;-83
2021/10/30 01:06:07;;;;;;;14.75;9.20;;;;;;;;;;4999204;28;20069;-83
2021/10/30 01:08:43;;;;;;;14.07;9.07;;;;;;;;;;4998013;28;20042;-83
2021/10/30 01:11:10;;;;;;;14.52;9.65;;;;;;;;;;4997303;28;20109;-83
2021/10/30 01:13:45;;;;;;;18.20;9.65;;;;;;;;;;4995864;28;20081;-83
2021/10/30 01:16:17;;;;;;;19.70;8.77;;;;;;;;;;5013251;28;20081;-83
2021/10/30 01:18:44;;;;;;;14.13;9.15;;;;;;;;;;5013287;28;20053;-83
2021/10/30 01:21:23;;;;;;;15.40;8.45;;;;;;;;;;4996008;28;20056;-83
2021/10/30 01:23:50;;;;;;;12.52;8.40;;;;;;;;;;4997977;28;20288;-84
2021/10/30 01:26:19;;;;;;;13.80;8.35;;;;;;;;;;4996777;28;20042;-83
2021/10/30 01:28:48;;;;;;;12.00;8.05;;;;;;;;;;4998152;28;20167;-85
2021/10/30 01:31:15;;;;;;;13.55;8.38;;;;;;;;;;5000523;28;20046;-83
2021/10/30 01:33:51;;;;;;;19.00;9.68;;;;;;;;;;5019893;28;20142;-83
2021/10/30 01:36:19;;;;;;;16.88;9.52;;;;;;;;;;5022238;28;20056;-83
2021/10/30 01:38:46;;;;;;;19.73;9.40;;;;;;;;;;5023316;28;20060;-84
2021/10/30 01:41:13;;;;;;;22.55;9.15;;;;;;;;;;5000469;28;20319;-82
2021/10/30 01:43:43;;;;;;;12.57;9.02;;;;;;;;;;5000858;28;20053;-82
2021/10/30 01:46:17;;;;;;;14.05;9.70;;;;;;;;;;5017356;28;20433;-82
2021/10/30 01:48:46;;;;;;;16.23;9.50;;;;;;;;;;5017155;28;20141;-83
2021/10/30 01:51:15;;;;;;;18.92;10.40;;;;;;;;;;4999823;28;20065;-82
2021/10/30 01:53:47;;;;;;;16.30;9.13;;;;;;;;;;5016966;28;20052;-82
2021/10/30 01:56:17;;;;;;;16.63;9.40;;;;;;;;;;5017604;28;20131;-81
2021/10/30 01:58:48;;;;;;;13.77;8.45;;;;;;;;;;4999186;28;20314;-83
2021/10/30 02:01:17;;;;;;;15.07;8.82;;;;;;;;;;5017808;28;20050;-85
2021/10/30 02:03:51;;;;;;;16.83;9.27;;;;;;;;;;4998284;28;20042;-82
2021/10/30 02:06:17;;;;;;;14.48;8.05;;;;;;;;;;4999258;28;20245;-83
2021/10/30 02:08:47;;;;;;;14.48;7.85;;;;;;;;;;4998947;28;20496;-82
2021/10/30 02:11:14;;;;;;;15.93;8.00;;;;;;;;;;5017145;28;20041;-83
2021/10/30 02:13:41;;;;;;;13.48;8.40;;;;;;;;;;5031833;28;20046;-82
2021/10/30 02:16:12;;;;;;;17.40;8.32;;;;;;;;;;5000622;28;20054;-82
2021/10/30 02:18:45;;;;;;;14.52;7.82;;;;;;;;;;5016834;28;20484;-82
2021/10/30 02:21:18;;;;;;;12.23;7.68;;;;;;;;;;5017135;28;20486;-82
2021/10/30 02:23:44;;;;;;;14.68;9.02;;;;;;;;;;5017154;28;20091;-83
2021/10/30 02:26:13;;;;;;;13.52;8.52;;;;;;;;;;5000105;28;20045;-82
2021/10/30 02:28:40;;;;;;;12.90;7.93;;;;;;;;;;4999031;28;20050;-83
2021/10/30 02:31:07;;;;;;;12.55;7.18;;;;;;;;;;5001225;28;20049;-82
2021/10/30 02:33:35;;;;;;;11.77;7.70;;;;;;;;;;5018380;28;20053;-83
2021/10/30 02:36:02;;;;;;;9.73;7.45;;;;;;;;;;4999537;28;20046;-82
2021/10/30 02:38:32;;;;;;;13.95;7.55;;;;;;;;;;4997669;28;20062;-82
2021/10/30 02:41:03;;;;;;;14.77;7.18;;;;;;;;;;4996995;28;20054;-82
2021/10/30 02:43:29;;;;;;;14.40;7.40;;;;;;;;;;5000673;28;20046;-83
2021/10/30 02:45:56;;;;;;;10.30;7.22;;;;;;;;;;5000282;28;20050;-82
2021/10/30 02:48:23;;;;;;;16.35;7.50;;;;;;;;;;5000756;28;20346;-84
2021/10/30 02:50:51;;;;;;;11.10;7.30;;;;;;;;;;5001599;28;20450;-84
2021/10/30 02:53:18;;;;;;;13.05;7.25;;;;;;;;;;5001149;28;20050;-82
2021/10/30 02:55:44;;;;;;;10.98;7.25;;;;;;;;;;5002182;28;20095;-82
2021/10/30 02:58:11;;;;;;;12.80;7.18;;;;;;;;;;5031187;28;20037;-82
2021/10/30 03:00:37;;;;;;;12.48;7.28;;;;;;;;;;5026793;28;20298;-82
2021/10/30 03:03:05;;;;;;;10.55;6.97;;;;;;;;;;5017663;28;20057;-82
2021/10/30 03:05:32;;;;;;;10.20;6.40;;;;;;;;;;5018513;28;20060;-82
2021/10/30 03:07:58;;;;;;;11.02;6.93;;;;;;;;;;5018533;28;20049;-83
2021/10/30 03:10:25;;;;;;;12.38;7.38;;;;;;;;;;5017060;28;20057;-83
2021/10/30 03:12:56;;;;;;;12.20;7.90;;;;;;;;;;5001584;28;20064;-82
2021/10/30 03:15:23;;;;;;;13.05;7.68;;;;;;;;;;5001146;28;20062;-82
2021/10/30 03:17:50;;;;;;;11.13;7.55;;;;;;;;;;5019633;28;20081;-82
2021/10/30 03:20:20;;;;;;;23.15;8.40;;;;;;;;;;5001547;28;20089;-82
2021/10/30 03:22:46;;;;;;;13.55;7.60;;;;;;;;;;4999829;28;20122;-82
2021/10/30 03:25:17;;;;;;;14.85;7.82;;;;;;;;;;4999194;28;20135;-82
2021/10/30 03:27:44;;;;;;;12.27;8.13;;;;;;;;;;4999248;28;20053;-83
2021/10/30 03:30:11;;;;;;;13.57;7.47;;;;;;;;;;4998623;28;20100;-82
2021/10/30 03:32:41;;;;;;;12.05;7.68;;;;;;;;;;5004296;28;20383;-82
2021/10/30 03:35:08;;;;;;;10.95;7.07;;;;;;;;;;5004856;28;20046;-82
2021/10/30 03:37:35;;;;;;;13.93;8.00;;;;;;;;;;5004525;28;20535;-82
2021/10/30 03:40:08;;;;;;;9.75;7.63;;;;;;;;;;5004474;28;20068;-82
2021/10/30 03:42:41;;;;;;;11.77;7.20;;;;;;;;;;5021766;28;20064;-82
2021/10/30 03:45:08;;;;;;;12.65;7.20;;;;;;;;;;5004017;28;20255;-82
2021/10/30 03:47:38;;;;;;;12.90;8.10;;;;;;;;;;5002556;28;20058;-83
2021/10/30 03:50:10;;;;;;;11.38;7.30;;;;;;;;;;5019356;28;20058;-83
2021/10/30 03:52:37;;;;;;;14.63;8.80;;;;;;;;;;5002803;28;20066;-83
2021/10/30 03:55:13;;;;;;;11.48;7.82;;;;;;;;;;5004393;28;20046;-83
2021/10/30 03:57:40;;;;;;;15.55;8.70;;;;;;;;;;5021975;28;20061;-84
2021/10/30 04:00:07;;;;;;;13.60;7.57;;;;;;;;;;5004663;28;20164;-83
2021/10/30 04:02:43;;;;;;;11.30;7.90;;;;;;;;;;5022557;28;20054;-83
2021/10/30 04:05:13;;;;;;;21.17;8.80;;;;;;;;;;5022389;28;20050;-83
2021/10/30 04:07:40;;;;;;;14.80;8.00;;;;;;;;;;5021318;28;20496;-83
2021/10/30 04:10:06;;;;;;;12.43;8.25;;;;;;;;;;5020430;28;20050;-84
2021/10/30 04:12:35;;;;;;;11.90;8.23;;;;;;;;;;5019051;28;20069;-83
2021/10/30 04:15:10;;;;;;;13.35;8.32;;;;;;;;;;5003168;28;20054;-83
2021/10/30 04:17:39;;;;;;;13.93;7.90;;;;;;;;;;5002992;28;20108;-83
2021/10/30 04:20:12;;;;;;;13.90;8.90;;;;;;;;;;5018872;28;20200;-83
2021/10/30 04:22:38;;;;;;;16.70;8.07;;;;;;;;;;5001804;28;20183;-83
2021/10/30 04:25:08;;;;;;;15.38;8.70;;;;;;;;;;5003301;28;20088;-83
2021/10/30 04:27:35;;;;;;;11.90;8.57;;;;;;;;;;5001266;28;20058;-83
2021/10/30 04:30:02;;;;;;;13.65;8.45;;;;;;;;;;4998986;28;20053;-83
2021/10/30 04:32:29;;;;;;;14.68;9.15;;;;;;;;;;5002090;28;20108;-83
2021/10/30 04:35:06;;;;;;;15.30;8.10;;;;;;;;;;5001547;28;20072;-83
2021/10/30 04:37:44;;;;;;;13.68;7.53;;;;;;;;;;5003176;28;20064;-83
2021/10/30 04:40:14;;;;;;;14.02;7.68;;;;;;;;;;5020424;28;20155;-83
2021/10/30 04:42:41;;;;;;;14.48;9.25;;;;;;;;;;5002975;28;20050;-83
2021/10/30 04:45:08;;;;;;;12.75;8.13;;;;;;;;;;5003012;28;20465;-83
2021/10/30 04:47:44;;;;;;;13.45;9.07;;;;;;;;;;5003097;28;20062;-83
2021/10/30 04:50:14;;;;;;;13.88;8.88;;;;;;;;;;5003580;28;20325;-83
2021/10/30 04:52:44;;;;;;;13.70;8.55;;;;;;;;;;5000962;28;20057;-83
2021/10/30 04:55:14;;;;;;;13.75;8.70;;;;;;;;;;5019696;28;20311;-84
2021/10/30 04:57:41;;;;;;;18.65;8.90;;;;;;;;;;4991008;28;20361;-83
2021/10/30 05:00:12;;;;;;;13.10;8.50;;;;;;;;;;4981174;28;20092;-83
2021/10/30 05:02:38;;;;;;;15.55;8.63;;;;;;;;;;4981615;28;20121;-83
2021/10/30 05:05:09;;;;;;;13.50;8.73;;;;;;;;;;4981993;28;20062;-83
2021/10/30 05:07:39;;;;;;;14.38;9.45;;;;;;;;;;4981276;28;20047;-83
2021/10/30 05:10:09;;;;;;;15.38;8.13;;;;;;;;;;4981467;28;20060;-83
2021/10/30 05:12:42;;;;;;;14.27;8.18;;;;;;;;;;4980299;28;20042;-83
2021/10/30 05:15:08;;;;;;;13.80;8.63;;;;;;;;;;4997025;28;20468;-82
2021/10/30 05:17:38;;;;;;;13.73;8.35;;;;;;;;;;5000883;28;20088;-83
2021/10/30 05:20:15;;;;;;;12.82;8.15;;;;;;;;;;5022833;28;20166;-83
2021/10/30 05:22:44;;;;;;;12.82;7.85;;;;;;;;;;5002868;28;20061;-83
2021/10/30 05:25:13;;;;;;;11.60;8.05;;;;;;;;;;5000726;28;20152;-83
2021/10/30 05:27:46;;;;;;;11.10;8.10;;;;;;;;;;5000258;28;20152;-83
2021/10/30 05:30:13;;;;;;;17.63;8.40;;;;;;;;;;5000370;28;20148;-83
2021/10/30 05:32:48;;;;;;;13.40;8.38;;;;;;;;;;5017279;28;20061;-82
2021/10/30 05:35:17;;;;;;;17.48;8.70;;;;;;;;;;5019390;28;20046;-83
2021/10/30 05:37:44;;;;;;;17.23;8.63;;;;;;;;;;5019153;28;20050;-82
2021/10/30 05:40:12;;;;;;;16.65;9.23;;;;;;;;;;5002883;28;20116;-83
2021/10/30 05:42:48;;;;;;;18.23;8.90;;;;;;;;;;5009583;28;20058;-83
2021/10/30 05:45:14;;;;;;;13.07;9.00;;;;;;;;;;5027221;28;20050;-82
2021/10/30 05:47:47;;;;;;;15.02;9.05;;;;;;;;;;5005989;28;20078;-82
2021/10/30 05:50:16;;;;;;;13.63;8.85;;;;;;;;;;5021194;28;20164;-82
2021/10/30 05:52:43;;;;;;;15.43;9.57;;;;;;;;;;5003321;28;20054;-82
2021/10/30 05:55:13;;;;;;;14.60;8.98;;;;;;;;;;5002768;28;20214;-82
2021/10/30 05:57:43;;;;;;;15.38;9.57;;;;;;;;;;5012236;28;20046;-83
2021/10/30 06:00:18;;;;;;;15.25;9.45;;;;;;;;;;5010353;28;20172;-82
2021/10/30 06:02:48;;;;;;;12.77;9.40;;;;;;;;;;4999049;28;20156;-82
2021/10/30 06:05:15;;;;;;;17.38;9.50;;;;;;;;;;4999263;28;20057;-82
2021/10/30 06:07:51;;;;;;;13.27;9.52;;;;;;;;;;5017073;28;20057;-82
2021/10/30 06:10:17;;;;;;;12.25;8.88;;;;;;;;;;5014358;28;20414;-82
2021/10/30 06:12:44;;;;;;;14.43;8.90;;;;;;;;;;4996577;28;20049;-82
2021/10/30 06:15:16;;;;;;;16.98;9.70;;;;;;;;;;4997198;28;20141;-82
2021/10/30 06:17:48;;;;;;;18.33;9.40;;;;;;;;;;4996870;28;20079;-82
2021/10/30 06:20:15;;;;;;;16.55;10.43;;;;;;;;;;4995781;28;20112;-82
2021/10/30 06:22:42;;;;;;;18.15;10.50;;;;;;;;;;4995600;28;20257;-82
2021/10/30 06:25:16;;;;;;;17.67;9.65;;;;;;;;;;5015234;28;20249;-82
2021/10/30 06:27:58;;;;;;;16.25;10.75;;;;;;;;;;5015575;28;20128;-82
2021/10/30 06:30:25;;;;;;;18.88;10.93;;;;;;;;;;5003254;28;20057;-83
2021/10/30 06:32:52;;;;;;;17.67;10.45;;;;;;;;;;4998080;28;20081;-82
2021/10/30 06:35:19;;;;;;;17.58;10.73;;;;;;;;;;4996393;28;20236;-82
2021/10/30 06:37:46;;;;;;;17.83;10.82;;;;;;;;;;4997542;28;20053;-83
2021/10/30 06:40:17;;;;;;;16.08;10.52;;;;;;;;;;4996501;28;20054;-82
2021/10/30 06:42:53;;;;;;;18.73;11.20;;;;;;;;;;5014314;28;20605;-82
2021/10/30 06:45:20;;;;;;;18.13;10.45;;;;;;;;;;4998265;28;20054;-83
2021/10/30 06:47:49;;;;;;;15.63;10.13;;;;;;;;;;4996173;28;20403;-83
2021/10/30 06:50:20;;;;;;;17.85;11.82;;;;;;;;;;4997238;28;20140;-83
2021/10/30 06:52:52;;;;;;;16.70;11.35;;;;;;;;;;5014065;28;20061;-83
2021/10/30 06:55:22;;;;;;;15.73;10.13;;;;;;;;;;5015921;28;20571;-82
2021/10/30 06:57:49;;;;;;;15.65;10.57;;;;;;;;;;5014948;28;20073;-83
2021/10/30 07:00:19;;;;;;;15.73;10.38;;;;;;;;;;5015932;28;20088;-82
2021/10/30 07:02:51;;;;;;;19.50;10.65;;;;;;;;;;4997977;28;20049;-82
2021/10/30 07:05:21;;;;;;;18.15;10.27;;;;;;;;;;4996920;28;20061;-82
2021/10/30 07:07:48;;;;;;;18.25;10.45;;;;;;;;;;4998532;28;20049;-84
2021/10/30 07:10:16;;;;;;;18.35;11.07;;;;;;;;;;4998793;28;20050;-82
2021/10/30 07:12:52;;;;;;;16.35;10.02;;;;;;;;;;4998438;28;20050;-84
2021/10/30 07:15:22;;;;;;;16.90;9.70;;;;;;;;;;5014243;28;20058;-84
2021/10/30 07:17:49;;;;;;;17.83;10.70;;;;;;;;;;5014084;28;20053;-82
2021/10/30 07:20:17;;;;;;;17.65;10.27;;;;;;;;;;5014870;28;20046;-82
2021/10/30 07:22:48;;;;;;;18.27;9.45;;;;;;;;;;4997199;28;20081;-82
2021/10/30 07:25:24;;;;;;;16.90;9.75;;;;;;;;;;4999854;28;20398;-84
2021/10/30 07:27:53;;;;;;;16.05;9.43;;;;;;;;;;4993061;28;20283;-82
2021/10/30 07:30:20;;;;;;;18.85;10.20;;;;;;;;;;4997318;28;20112;-83
2021/10/30 07:32:54;;;;;;;15.02;9.43;;;;;;;;;;4994487;28;20082;-83
2021/10/30 07:35:21;;;;;;;22.75;10.07;;;;;;;;;;4993022;28;20155;-82
2021/10/30 07:37:58;;;;;;;16.08;9.50;;;;;;;;;;4979818;28;20249;-83
2021/10/30 07:40:31;;;;;;;17.33;9.68;;;;;;;;;;5010513;28;20128;-83
2021/10/30 07:42:58;;;;;;;18.25;10.55;;;;;;;;;;5010412;28;20057;-83
2021/10/30 07:45:28;;;;;;;17.85;10.02;;;;;;;;;;4994641;28;20389;-83
2021/10/30 07:47:58;;;;;;;15.35;9.43;;;;;;;;;;5011172;28;20053;-83
2021/10/30 07:50:25;;;;;;;16.70;10.18;;;;;;;;;;5012898;28;20046;-83
2021/10/30 07:52:54;;;;;;;15.18;9.77;;;;;;;;;;4994064;28;20065;-83
2021/10/30 07:55:23;;;;;;;19.02;10.20;;;;;;;;;;5016399;28;20061;-83
2021/10/30 07:57:56;;;;;;;15.20;9.85;;;;;;;;;;5009982;28;20078;-82
2021/10/30 08:00:23;;;;;;;14.57;9.32;;;;;;;;;;4993727;28;20275;-83
2021/10/30 08:02:55;;;;;;;18.83;9.98;;;;;;;;;;5009276;28;20061;-84
2021/10/30 08:05:25;;;;;;;16.98;9.63;;;;;;;;;;5012840;28;20050;-83
2021/10/30 08:07:52;;;;;;;14.77;10.00;;;;;;;;;;5004253;28;20065;-83
2021/10/30 08:10:30;;;;;;;15.40;9.63;;;;;;;;;;5021842;28;20050;-83
2021/10/30 08:12:58;;;;;;;17.15;10.55;;;;;;;;;;5011863;28;20140;-83
2021/10/30 08:15:24;;;;;;;17.48;9.85;;;;;;;;;;4995135;28;20042;-83
2021/10/30 08:17:52;;;;;;;14.35;9.85;;;;;;;;;;5010146;28;20046;-83
2021/10/30 08:20:22;;;;;;;16.52;8.88;;;;;;;;;;5010192;28;20061;-83
2021/10/30 08:22:52;;;;;;;13.85;8.98;;;;;;;;;;4993737;28;20481;-83
2021/10/30 08:25:24;;;;;;;15.18;10.52;;;;;;;;;;5009523;28;20053;-84
2021/10/30 08:27:52;;;;;;;17.75;9.38;;;;;;;;;;4994728;28;20422;-83
2021/10/30 08:30:19;;;;;;;13.43;8.90;;;;;;;;;;5024833;28;20243;-83
2021/10/30 08:33:04;;;;;;;16.45;9.88;;;;;;;;;;4997440;28;20042;-82
2021/10/30 08:35:37;;;;;;;14.57;9.48;;;;;;;;;;4994247;28;20046;-83
2021/10/30 08:38:08;;;;;;;15.48;9.90;;;;;;;;;;4993340;28;20143;-83
2021/10/30 08:40:39;;;;;;;14.13;9.27;;;;;;;;;;4997791;28;20056;-84
2021/10/30 08:43:09;;;;;;;15.73;9.88;;;;;;;;;;4984304;28;20058;-83
2021/10/30 08:45:35;;;;;;;18.35;10.30;;;;;;;;;;4988075;28;20423;-83
2021/10/30 08:48:13;;;;;;;15.52;9.85;;;;;;;;;;4988467;28;20050;-83
2021/10/30 08:50:41;;;;;;;16.17;10.20;;;;;;;;;;4973317;28;20171;-84
2021/10/30 08:53:11;;;;;;;15.52;9.70;;;;;;;;;;4976549;28;20051;-82
2021/10/30 08:55:44;;;;;;;19.48;9.98;;;;;;;;;;5002160;28;20072;-83
2021/10/30 08:58:13;;;;;;;14.85;9.70;;;;;;;;;;5005963;28;20044;-83
2021/10/30 09:00:44;;;;;;;15.75;10.27;;;;;;;;;;4978967;28;20047;-82
2021/10/30 09:03:13;;;;;;;17.73;10.70;;;;;;;;;;4976449;28;20319;-83
2021/10/30 09:05:40;;;;;;;17.27;10.23;;;;;;;;;;4979507;28;20399;-83
2021/10/30 09:08:11;;;;;;;15.60;9.30;;;;;;;;;;4994357;28;20101;-82
2021/10/30 09:10:42;;;;;;;17.48;10.35;;;;;;;;;;5013174;28;20080;-82
2021/10/30 09:13:14;;;;;;;15.45;9.95;;;;;;;;;;5031717;28;20042;-83
2021/10/30 09:15:46;;;;;;;15.65;10.43;;;;;;;;;;5029972;28;20076;-83
2021/10/30 09:18:30;;;;;;;13.43;9.25;;;;;;;;;;5013057;28;20053;-83
2021/10/30 09:21:03;;;;;;;16.50;10.05;;;;;;;;;;5013830;28;20051;-83
2021/10/30 09:23:31;;;;;;;15.95;9.93;;;;;;;;;;5021292;28;20049;-84
2021/10/30 09:26:00;;;;;;;17.65;10.65;;;;;;;;;;5004912;28;20049;-84
2021/10/30 09:28:36;;;;;;;15.00;10.43;;;;;;;;;;5003313;28;20164;-84
2021/10/30 09:31:06;;;;;;;15.77;10.02;;;;;;;;;;5009810;28;20049;-84
2021/10/30 09:33:33;;;;;;;16.40;10.55;;;;;;;;;;5009358;28;20049;-84
2021/10/30 09:36:11;;;;;;;13.70;9.15;;;;;;;;;;5020150;28;20045;-84
2021/10/30 09:38:40;;;;;;;17.77;9.80;;;;;;;;;;5027664;28;20312;-84
2021/10/30 09:41:25;;;;;;;17.55;10.95;;;;;;;;;;5000549;28;20124;-84
2021/10/30 09:43:56;;;;;;;16.77;9.00;;;;;;;;;;4992334;28;20154;-84
2021/10/30 09:46:28;;;;;;;15.43;9.90;;;;;;;;;;4990203;28;20112;-85
2021/10/30 09:48:57;;;;;;;19.70;10.65;;;;;;;;;;5016842;28;20089;-85
2021/10/30 09:51:40;;;;;;;19.58;10.60;;;;;;;;;;5020808;28;20049;-83
2021/10/30 09:54:30;;;;;;;19.00;10.27;;;;;;;;;;4998778;28;20049;-83
2021/10/30 09:56:57;;;;;;;;;;;;;;;;;;4992329;28;20409;-83
2021/10/30 09:59:24;;;;;;;;;;;;;;;;;;4983574;28;20023;-83
2021/10/30 10:01:51;;;;;;;;;;;;;;;;;;4989533;28;19922;-83
2021/10/30 10:04:25;;;;;;;15.65;10.68;;;;;;;;;;4988688;28;20067;-83
2021/10/30 10:06:55;;;;;;;17.27;10.60;;;;;;;;;;4987762;28;20049;-83
2021/10/30 10:09:24;;;;;;;20.27;12.10;;;;;;;;;;4991697;28;20089;-84
2021/10/30 10:11:55;;;;;;;19.33;11.55;;;;;;;;;;5009934;28;20062;-84
2021/10/30 10:14:30;;;;;;;19.23;12.07;;;;;;;;;;4992922;28;20042;-84
2021/10/30 10:16:59;;;;;;;20.17;11.25;;;;;;;;;;5003676;28;20057;-83
2021/10/30 10:19:31;;;;;;;16.13;11.30;;;;;;;;;;4991369;28;20046;-84
2021/10/30 10:22:01;;;;;;;20.05;12.05;;;;;;;;;;4986119;28;20046;-84
2021/10/30 10:24:50;;;;;;;19.52;11.60;;;;;;;;;;4990888;28;20512;-84
2021/10/30 10:27:35;;;;;;;21.05;13.00;;;;;;;;;;4989362;28;20072;-84
2021/10/30 10:30:02;;;;;;;19.00;12.10;;;;;;;;;;4972348;28;20060;-84
2021/10/30 10:32:31;;;;;;;18.33;12.27;;;;;;;;;;4976485;28;20049;-84
2021/10/30 10:35:27;;;;;;;19.88;11.52;;;;;;;;;;4992162;28;20084;-84
2021/10/30 10:38:07;;;;;;;23.92;11.82;;;;;;;;;;4979535;28;20392;-84
2021/10/30 10:40:37;;;;;;;18.63;11.98;;;;;;;;;;4983606;28;20133;-84
2021/10/30 10:43:32;;;;;;;20.83;11.20;;;;;;;;;;4991173;28;20356;-85
2021/10/30 10:46:00;;;;;;;18.23;10.50;;;;;;;;;;5002991;28;20449;-84
2021/10/30 10:48:39;;;;;;;18.17;11.70;;;;;;;;;;5005708;28;20394;-85
2021/10/30 10:51:20;;;;;;;19.08;11.88;;;;;;;;;;4977251;28;20046;-86
2021/10/30 10:53:58;;;;;;;20.02;10.38;;;;;;;;;;4978382;28;20177;-84
2021/10/30 10:56:25;;;;;;;17.17;10.70;;;;;;;;;;4989225;28;20421;-84
2021/10/30 10:59:06;;;;;;;19.00;10.77;;;;;;;;;;4987379;28;20449;-85
2021/10/30 11:01:36;;;;;;;21.70;11.25;;;;;;;;;;5017063;28;20349;-84
2021/10/30 11:04:22;;;;;;;18.42;10.88;;;;;;;;;;4989814;28;20274;-84
2021/10/30 11:07:09;;;;;;;21.35;11.25;;;;;;;;;;4992649;28;20054;-85
2021/10/30 11:09:45;;;;;;;16.77;11.05;;;;;;;;;;4999716;28;20042;-85
2021/10/30 11:12:22;;;;;;;16.67;10.40;;;;;;;;;;4991900;28;20109;-85
2021/10/30 11:15:15;;;;;;;15.60;10.43;;;;;;;;;;4992118;28;20087;-85
2021/10/30 11:17:47;;;;;;;19.05;10.18;;;;;;;;;;4991005;28;20066;-85
2021/10/30 11:20:14;;;;;;;16.77;9.90;;;;;;;;;;4995736;28;20141;-85
2021/10/30 11:22:58;;;;;;;17.63;9.85;;;;;;;;;;4992055;28;20212;-84
2021/10/30 11:25:39;;;;;;;21.95;11.15;;;;;;;;;;5000400;28;20054;-85
2021/10/30 11:28:09;;;;;;;19.10;10.82;;;;;;;;;;5011177;28;20058;-84
2021/10/30 11:30:40;;;;;;;19.88;10.13;;;;;;;;;;5010894;28;20050;-84
2021/10/30 11:33:19;;;;;;;18.23;10.50;;;;;;;;;;5006821;28;20127;-85
2021/10/30 11:36:04;;;;;;;21.70;10.75;;;;;;;;;;4995303;28;20140;-84
2021/10/30 11:38:38;;;;;;;19.83;10.75;;;;;;;;;;5009668;28;20093;-85
2021/10/30 11:41:09;;;;;;;17.30;9.63;;;;;;;;;;4995770;28;20066;-84
2021/10/30 11:43:36;;;;;;;19.35;9.68;;;;;;;;;;5013603;28;20060;-84
2021/10/30 11:46:06;;;;;;;18.92;10.80;;;;;;;;;;4992130;28;20149;-84
2021/10/30 11:48:37;;;;;;;17.40;9.93;;;;;;;;;;4994410;28;20052;-84
2021/10/30 11:51:14;;;;;;;16.40;10.43;;;;;;;;;;4995312;28;20127;-84
2021/10/30 11:53:49;;;;;;;18.63;10.30;;;;;;;;;;4995471;28;20058;-83
2021/10/30 11:56:25;;;;;;;14.35;9.70;;;;;;;;;;5000325;28;20441;-83
2021/10/30 11:58:59;;;;;;;16.27;10.05;;;;;;;;;;5025638;28;20057;-83
2021/10/30 12:01:32;;;;;;;24.42;10.90;;;;;;;;;;5002484;28;20166;-84
2021/10/30 12:04:24;;;;;;;15.77;10.32;;;;;;;;;;4977188;28;20046;-83
2021/10/30 12:07:16;;;;;;;18.30;11.30;;;;;;;;;;5018518;28;20115;-84
2021/10/30 12:09:45;;;;;;;15.13;10.25;;;;;;;;;;5015855;28;20067;-85
2021/10/30 12:12:23;;;;;;;19.35;12.02;;;;;;;;;;5002397;28;20275;-84
2021/10/30 12:14:54;;;;;;;19.88;11.15;;;;;;;;;;5014542;28;20054;-84
2021/10/30 12:17:28;;;;;;;16.55;10.98;;;;;;;;;;4994441;28;20049;-83
2021/10/30 12:20:17;;;;;;;19.40;11.00;;;;;;;;;;4991183;28;20345;-84
2021/10/30 12:22:45;;;;;;;17.63;11.57;;;;;;;;;;5011213;28;20060;-85
2021/10/30 12:25:26;;;;;;;16.52;11.13;;;;;;;;;;5014269;28;20097;-84
2021/10/30 12:27:56;;;;;;;18.67;11.70;;;;;;;;;;5009488;28;20050;-84
2021/10/30 12:30:26;;;;;;;21.13;11.20;;;;;;;;;;4988485;28;20054;-84
2021/10/30 12:33:06;;;;;;;15.30;10.57;;;;;;;;;;4980273;28;20446;-83
2021/10/30 12:35:50;;;;;;;18.05;10.48;;;;;;;;;;5031254;28;20155;-83
2021/10/30 12:38:21;;;;;;;20.02;10.90;;;;;;;;;;5000782;28;20179;-83
2021/10/30 12:40:52;;;;;;;23.88;11.88;;;;;;;;;;4998003;28;20076;-83
2021/10/30 12:43:22;;;;;;;22.33;11.40;;;;;;;;;;4994287;28;20202;-85
2021/10/30 12:45:56;;;;;;;16.83;10.73;;;;;;;;;;5023561;28;20061;-84
2021/10/30 12:48:57;;;;;;;16.23;9.48;;;;;;;;;;5037270;28;20049;-84
2021/10/30 12:51:27;;;;;;;16.95;10.70;;;;;;;;;;5036565;28;20038;-84
2021/10/30 12:54:04;;;;;;;17.17;11.07;;;;;;;;;;5036395;28;20284;-84
2021/10/30 12:56:43;;;;;;;15.03;10.70;;;;;;;;;;5043233;28;20120;-83
2021/10/30 12:59:35;;;;;;;19.50;11.48;;;;;;;;;;5032552;28;20471;-84
2021/10/30 13:02:07;;;;;;;19.25;10.52;;;;;;;;;;5024566;28;20509;-84
2021/10/30 13:05:01;;;;;;;13.85;9.65;;;;;;;;;;4993183;28;20076;-84
2021/10/30 13:07:35;;;;;;;15.55;9.90;;;;;;;;;;5013071;28;20077;-83
2021/10/30 13:10:11;;;;;;;17.55;10.27;;;;;;;;;;5015257;28;20057;-83
2021/10/30 13:12:40;;;;;;;19.17;10.32;;;;;;;;;;4995932;28;20046;-83
2021/10/30 13:15:08;;;;;;;19.23;10.52;;;;;;;;;;5000936;28;20061;-84
2021/10/30 13:17:45;;;;;;;16.52;10.07;;;;;;;;;;5017985;28;20049;-83
2021/10/30 13:20:15;;;;;;;17.40;10.95;;;;;;;;;;5009557;28;20472;-84
2021/10/30 13:22:46;;;;;;;18.48;10.68;;;;;;;;;;4990587;28;20053;-84
2021/10/30 13:25:22;;;;;;;17.35;10.48;;;;;;;;;;4990932;28;20102;-84
2021/10/30 13:27:50;;;;;;;;;;;;;;;;;;5013702;28;20334;-83
2021/10/30 13:30:16;;;;;;;17.25;10.68;;;;;;;;;;5009224;28;19921;-84
2021/10/30 13:32:46;;;;;;;17.17;11.70;;;;;;;;;;4992393;28;20050;-84
2021/10/30 13:35:14;;;;;;;20.00;11.88;;;;;;;;;;5031852;28;20241;-83
2021/10/30 13:37:41;;;;;;;24.75;12.80;;;;;;;;;;4996427;28;20050;-83
2021/10/30 13:40:12;;;;;;;17.83;12.45;;;;;;;;;;5006962;28;20077;-83
2021/10/30 13:42:40;;;;;;;18.95;11.70;;;;;;;;;;4992377;28;20053;-84
2021/10/30 13:45:09;;;;;;;17.05;11.20;;;;;;;;;;4990760;28;20418;-83
2021/10/30 13:47:37;;;;;;;17.52;12.27;;;;;;;;;;4991448;28;20303;-84
2021/10/30 13:50:06;;;;;;;18.58;11.70;;;;;;;;;;4992030;28;20380;-84
2021/10/30 13:52:37;;;;;;;20.90;12.85;;;;;;;;;;5007530;28;20045;-84
2021/10/30 13:55:06;;;;;;;17.73;11.80;;;;;;;;;;5009164;28;20050;-84
2021/10/30 13:57:33;;;;;;;17.98;12.55;;;;;;;;;;4990064;28;20404;-83
2021/10/30 14:00:06;;;;;;;21.15;13.18;;;;;;;;;;4991700;28;20046;-83
2021/10/30 14:02:41;;;;;;;21.70;13.60;;;;;;;;;;5009363;28;20084;-82
2021/10/30 14:05:18;;;;;;;20.55;12.60;;;;;;;;;;5018380;28;20100;-85
2021/10/30 14:07:46;;;;;;;19.08;13.30;;;;;;;;;;4991455;28;20109;-83
2021/10/30 14:10:15;;;;;;;19.77;11.98;;;;;;;;;;5004694;28;20104;-83
2021/10/30 14:12:42;;;;;;;23.83;13.50;;;;;;;;;;4990004;28;20073;-82
2021/10/30 14:15:09;;;;;;;25.65;13.75;;;;;;;;;;5010007;28;20049;-84
2021/10/30 14:17:38;;;;;;;21.95;14.45;;;;;;;;;;4990756;28;20128;-84
2021/10/30 14:20:08;;;;;;;19.27;13.05;;;;;;;;;;4991071;28;20115;-83
2021/10/30 14:22:36;;;;;;;22.17;14.02;;;;;;;;;;5009694;28;20621;-83
2021/10/30 14:25:07;;;;;;;22.60;14.90;;;;;;;;;;5005591;28;20195;-83
2021/10/30 14:27:39;;;;;;;23.58;15.27;;;;;;;;;;4971147;28;20101;-83
2021/10/30 14:30:07;;;;;;;28.40;16.90;;;;;;;;;;5012739;28;20050;-83
2021/10/30 14:32:40;;;;;;;23.48;13.82;;;;;;;;;;4974161;28;20117;-84
2021/10/30 14:35:09;;;;;;;24.98;15.15;;;;;;;;;;4990751;28;20400;-83
2021/10/30 14:37:39;;;;;;;27.90;14.75;;;;;;;;;;4991563;28;20049;-83
2021/10/30 14:40:06;;;;;;;22.55;14.80;;;;;;;;;;4990418;28;20494;-83
2021/10/30 14:42:34;;;;;;;23.05;13.80;;;;;;;;;;5008041;28;20077;-83
2021/10/30 14:45:19;;;;;;;26.70;13.77;;;;;;;;;;5006135;28;20213;-84
2021/10/30 14:47:47;;;;;;;23.20;14.38;;;;;;;;;;5015776;28;20059;-84
2021/10/30 14:50:22;;;;;;;22.65;13.98;;;;;;;;;;5033200;28;20165;-85